Time;durP1;ratioP1;P1;durP2;ratioP2;P2;SDS_P1;SDS_P2;PMS_P1;PMS_P2;Temp;Humidity;BMP_temperature;BMP_pressure;BME280_temperature;BME280_humidity;BME280_pressure;Samples;Min_cycle;Max_cycle;Signal;HPM_P1;HPM_P2
2021/08/02 00:01:29;;;;;;;3.88;2.30;;;;;;;;;;5051456;28;20188;-69
2021/08/02 00:04:05;;;;;;;4.35;2.20;;;;;;;;;;5051747;28;20833;-69
2021/08/02 00:06:46;;;;;;;3.33;2.08;;;;;;;;;;5053648;28;20173;-69
2021/08/02 00:09:12;;;;;;;10.27;2.80;;;;;;;;;;5052471;28;20429;-69
2021/08/02 00:11:52;;;;;;;5.82;2.65;;;;;;;;;;5048379;28;20528;-70
2021/08/02 00:14:17;;;;;;;4.60;2.53;;;;;;;;;;5053034;28;20208;-69
2021/08/02 00:16:43;;;;;;;6.93;2.72;;;;;;;;;;5056125;28;20178;-70
2021/08/02 00:19:09;;;;;;;4.85;2.47;;;;;;;;;;5050751;28;20166;-70
2021/08/02 00:21:34;;;;;;;3.70;2.35;;;;;;;;;;5051904;28;20651;-69
2021/08/02 00:23:59;;;;;;;4.10;2.53;;;;;;;;;;5051720;28;20208;-70
2021/08/02 00:26:25;;;;;;;5.53;2.40;;;;;;;;;;5052528;28;20186;-69
2021/08/02 00:28:50;;;;;;;4.05;2.47;;;;;;;;;;5031822;28;20197;-69
2021/08/02 00:31:15;;;;;;;4.10;2.72;;;;;;;;;;5027357;28;20214;-69
2021/08/02 00:33:40;;;;;;;3.70;2.28;;;;;;;;;;5046706;28;20190;-70
2021/08/02 00:36:17;;;;;;;4.05;2.75;;;;;;;;;;5049198;28;20176;-69
2021/08/02 00:38:46;;;;;;;5.40;2.60;;;;;;;;;;5038250;28;20197;-69
2021/08/02 00:41:17;;;;;;;4.95;2.25;;;;;;;;;;5051794;28;20670;-69
2021/08/02 00:43:45;;;;;;;4.40;2.53;;;;;;;;;;5053809;28;20236;-69
2021/08/02 00:46:11;;;;;;;5.97;2.65;;;;;;;;;;5049358;28;20548;-70
2021/08/02 00:48:43;;;;;;;4.75;2.90;;;;;;;;;;5049187;28;20545;-70
2021/08/02 00:51:09;;;;;;;5.20;2.15;;;;;;;;;;5050351;28;20208;-69
2021/08/02 00:53:36;;;;;;;8.43;3.10;;;;;;;;;;5050980;28;20206;-70
2021/08/02 00:56:02;;;;;;;10.98;4.50;;;;;;;;;;5049850;28;20178;-70
2021/08/02 00:58:29;;;;;;;5.60;3.40;;;;;;;;;;5053314;28;20185;-69
2021/08/02 01:00:55;;;;;;;6.45;2.70;;;;;;;;;;5051821;28;20658;-70
2021/08/02 01:03:21;;;;;;;7.30;3.35;;;;;;;;;;5050476;28;20200;-69
2021/08/02 01:05:50;;;;;;;3.90;2.53;;;;;;;;;;5053312;28;20177;-69
2021/08/02 01:08:20;;;;;;;16.15;4.40;;;;;;;;;;5031435;28;20242;-69
2021/08/02 01:10:48;;;;;;;5.05;2.45;;;;;;;;;;5050612;28;20189;-70
2021/08/02 01:13:16;;;;;;;6.35;2.70;;;;;;;;;;5049996;28;20679;-70
2021/08/02 01:15:44;;;;;;;5.03;2.20;;;;;;;;;;5033379;28;20659;-70
2021/08/02 01:18:11;;;;;;;6.05;2.10;;;;;;;;;;5055038;28;20175;-69
2021/08/02 01:20:40;;;;;;;3.35;2.50;;;;;;;;;;5050549;28;20181;-69
2021/08/02 01:23:05;;;;;;;4.45;2.53;;;;;;;;;;5039873;28;20232;-70
2021/08/02 01:25:33;;;;;;;4.85;2.08;;;;;;;;;;5049496;28;20182;-70
2021/08/02 01:28:13;;;;;;;5.25;2.55;;;;;;;;;;5048104;28;20192;-70
2021/08/02 01:30:39;;;;;;;5.53;2.25;;;;;;;;;;5045653;28;20288;-69
2021/08/02 01:33:04;;;;;;;3.38;1.92;;;;;;;;;;5042554;28;20264;-70
2021/08/02 01:35:29;;;;;;;5.35;2.05;;;;;;;;;;5049681;28;20188;-69
2021/08/02 01:37:55;;;;;;;3.97;2.17;;;;;;;;;;5046883;28;20173;-69
2021/08/02 01:40:20;;;;;;;8.45;3.30;;;;;;;;;;5047101;28;20193;-69
2021/08/02 01:42:46;;;;;;;4.00;2.25;;;;;;;;;;5049112;28;20611;-69
2021/08/02 01:45:11;;;;;;;3.40;2.15;;;;;;;;;;5050737;28;20276;-70
2021/08/02 01:47:45;;;;;;;4.63;2.20;;;;;;;;;;5032127;28;20185;-69
2021/08/02 01:50:18;;;;;;;4.70;2.08;;;;;;;;;;5048754;28;20234;-69
2021/08/02 01:53:07;;;;;;;6.22;2.55;;;;;;;;;;5051106;28;20269;-69
2021/08/02 01:55:32;;;;;;;5.45;2.30;;;;;;;;;;5048822;28;20186;-70
2021/08/02 01:58:03;;;;;;;7.22;2.80;;;;;;;;;;5047148;28;20174;-70
2021/08/02 02:00:30;;;;;;;5.22;2.20;;;;;;;;;;5043326;28;20186;-71
2021/08/02 02:03:12;;;;;;;3.38;2.05;;;;;;;;;;5053316;28;20207;-71
2021/08/02 02:05:39;;;;;;;3.72;2.20;;;;;;;;;;5073320;22;20627;-71
2021/08/02 02:08:11;;;;;;;4.03;2.45;;;;;;;;;;5062149;28;20181;-71
2021/08/02 02:10:38;;;;;;;3.85;2.10;;;;;;;;;;5061894;28;20205;-72
2021/08/02 02:13:05;;;;;;;18.48;3.08;;;;;;;;;;5067755;28;20176;-71
2021/08/02 02:15:31;;;;;;;4.90;2.42;;;;;;;;;;5053408;28;20201;-71
2021/08/02 02:17:57;;;;;;;5.32;2.20;;;;;;;;;;5051732;28;20227;-72
2021/08/02 02:20:22;;;;;;;6.55;2.78;;;;;;;;;;5041501;28;20185;-71
2021/08/02 02:22:48;;;;;;;4.60;2.15;;;;;;;;;;5048002;28;20195;-71
2021/08/02 02:25:13;;;;;;;3.63;2.45;;;;;;;;;;5041031;28;20198;-71
2021/08/02 02:27:38;;;;;;;8.38;2.50;;;;;;;;;;5032929;28;20182;-71
2021/08/02 02:30:04;;;;;;;5.45;2.78;;;;;;;;;;5050639;28;20212;-71
2021/08/02 02:32:30;;;;;;;2.97;2.13;;;;;;;;;;5051590;28;20181;-72
2021/08/02 02:34:56;;;;;;;3.65;1.90;;;;;;;;;;5051471;28;20197;-71
2021/08/02 02:37:24;;;;;;;4.45;2.30;;;;;;;;;;5032383;28;20212;-72
2021/08/02 02:39:50;;;;;;;4.00;2.38;;;;;;;;;;5050549;28;20612;-71
2021/08/02 02:42:15;;;;;;;3.78;2.10;;;;;;;;;;5035082;28;20484;-71
2021/08/02 02:44:40;;;;;;;4.82;3.03;;;;;;;;;;5057461;28;20276;-72
2021/08/02 02:47:06;;;;;;;3.65;2.28;;;;;;;;;;5055234;28;20185;-71
2021/08/02 02:49:31;;;;;;;4.25;2.22;;;;;;;;;;5031899;28;20177;-71
2021/08/02 02:51:57;;;;;;;3.90;2.53;;;;;;;;;;5053808;28;20193;-72
2021/08/02 02:54:22;;;;;;;3.17;2.30;;;;;;;;;;5051603;28;20767;-72
2021/08/02 02:56:48;;;;;;;4.53;2.42;;;;;;;;;;5059803;28;20295;-71
2021/08/02 02:59:13;;;;;;;4.22;2.47;;;;;;;;;;5051692;28;20178;-71
2021/08/02 03:01:40;;;;;;;7.18;2.25;;;;;;;;;;5059788;28;20267;-72
2021/08/02 03:04:07;;;;;;;4.00;2.42;;;;;;;;;;5058150;28;20239;-71
2021/08/02 03:06:32;;;;;;;7.38;2.83;;;;;;;;;;5054319;28;20671;-71
2021/08/02 03:08:58;;;;;;;3.58;2.10;;;;;;;;;;5050621;28;20218;-71
2021/08/02 03:11:23;;;;;;;7.32;2.40;;;;;;;;;;5032567;28;20740;-72
2021/08/02 03:13:51;;;;;;;2.78;2.38;;;;;;;;;;5033968;28;20265;-72
2021/08/02 03:16:18;;;;;;;4.35;2.85;;;;;;;;;;5052435;28;20180;-71
2021/08/02 03:18:43;;;;;;;7.53;3.58;;;;;;;;;;5051796;28;20562;-71
2021/08/02 03:21:08;;;;;;;6.88;3.28;;;;;;;;;;5052962;28;20178;-71
2021/08/02 03:23:37;;;;;;;4.22;2.33;;;;;;;;;;5037419;28;20192;-71
2021/08/02 03:26:05;;;;;;;3.75;2.42;;;;;;;;;;5052379;28;20209;-72
2021/08/02 03:28:34;;;;;;;5.95;2.97;;;;;;;;;;5050032;28;20569;-71
2021/08/02 03:31:00;;;;;;;5.47;2.75;;;;;;;;;;5033702;28;20215;-71
2021/08/02 03:33:27;;;;;;;5.82;2.58;;;;;;;;;;5050404;28;20189;-71
2021/08/02 03:35:56;;;;;;;6.10;3.08;;;;;;;;;;5050428;28;20240;-71
2021/08/02 03:38:21;;;;;;;6.97;2.90;;;;;;;;;;5049958;28;20178;-71
2021/08/02 03:40:47;;;;;;;5.05;2.88;;;;;;;;;;5052796;28;20239;-71
2021/08/02 03:43:13;;;;;;;8.93;3.30;;;;;;;;;;5046075;28;20178;-71
2021/08/02 03:45:42;;;;;;;6.75;3.15;;;;;;;;;;5033313;28;20201;-71
2021/08/02 03:48:07;;;;;;;10.75;3.55;;;;;;;;;;5055690;28;20311;-71
2021/08/02 03:50:32;;;;;;;5.32;2.50;;;;;;;;;;5060215;28;20283;-71
2021/08/02 03:52:58;;;;;;;5.60;3.05;;;;;;;;;;5038980;28;20170;-71
2021/08/02 03:55:24;;;;;;;5.13;3.05;;;;;;;;;;5056596;28;20194;-71
2021/08/02 03:57:49;;;;;;;4.28;3.10;;;;;;;;;;5051262;28;20181;-71
2021/08/02 04:00:14;;;;;;;5.05;3.00;;;;;;;;;;5049559;28;20185;-71
2021/08/02 04:02:40;;;;;;;5.18;3.42;;;;;;;;;;5036816;28;20178;-71
2021/08/02 04:05:05;;;;;;;5.55;3.22;;;;;;;;;;5050794;28;20288;-71
2021/08/02 04:07:30;;;;;;;3.67;3.03;;;;;;;;;;5051469;28;20716;-71
2021/08/02 04:09:55;;;;;;;9.40;3.45;;;;;;;;;;5031320;28;20205;-72
2021/08/02 04:12:20;;;;;;;7.07;3.60;;;;;;;;;;5033033;28;20456;-71
2021/08/02 04:14:45;;;;;;;5.13;2.97;;;;;;;;;;5052868;28;20291;-71
2021/08/02 04:17:11;;;;;;;5.10;3.30;;;;;;;;;;5052005;28;20535;-71
2021/08/02 04:19:36;;;;;;;4.45;3.05;;;;;;;;;;5031543;28;20232;-71
2021/08/02 04:22:01;;;;;;;3.90;3.20;;;;;;;;;;5053197;28;20677;-71
2021/08/02 04:24:27;;;;;;;7.32;3.50;;;;;;;;;;5041059;28;20251;-71
2021/08/02 04:26:52;;;;;;;5.32;3.00;;;;;;;;;;5053615;28;20213;-71
2021/08/02 04:29:17;;;;;;;7.72;3.42;;;;;;;;;;5057167;28;20170;-71
2021/08/02 04:31:43;;;;;;;6.50;3.15;;;;;;;;;;5035578;28;20205;-71
2021/08/02 04:34:08;;;;;;;7.60;3.70;;;;;;;;;;5049974;28;20544;-71
2021/08/02 04:36:33;;;;;;;8.23;3.83;;;;;;;;;;5050069;28;20186;-71
2021/08/02 04:38:59;;;;;;;6.75;3.88;;;;;;;;;;5045677;28;20209;-71
2021/08/02 04:41:24;;;;;;;5.75;3.33;;;;;;;;;;5029769;28;20235;-71
2021/08/02 04:43:49;;;;;;;5.32;3.60;;;;;;;;;;5050237;28;20170;-71
2021/08/02 04:46:14;;;;;;;8.32;3.80;;;;;;;;;;5050554;28;20181;-72
2021/08/02 04:48:40;;;;;;;4.22;3.15;;;;;;;;;;5051066;28;20371;-71
2021/08/02 04:51:05;;;;;;;5.90;3.20;;;;;;;;;;5048437;28;20225;-71
2021/08/02 04:53:30;;;;;;;5.68;3.55;;;;;;;;;;5048933;28;20174;-71
2021/08/02 04:55:55;;;;;;;8.38;3.65;;;;;;;;;;5053108;28;20679;-72
2021/08/02 04:58:20;;;;;;;6.35;2.65;;;;;;;;;;5049959;28;20182;-71
2021/08/02 05:00:46;;;;;;;4.70;2.90;;;;;;;;;;5029631;28;20189;-72
2021/08/02 05:03:12;;;;;;;6.95;2.88;;;;;;;;;;5040121;28;20723;-71
2021/08/02 05:05:37;;;;;;;4.07;2.50;;;;;;;;;;5044464;28;20229;-71
2021/08/02 05:08:02;;;;;;;5.53;2.92;;;;;;;;;;5031683;28;20710;-71
2021/08/02 05:10:27;;;;;;;5.20;2.40;;;;;;;;;;5047108;28;21027;-72
2021/08/02 05:12:53;;;;;;;4.38;2.53;;;;;;;;;;5046000;28;20567;-72
2021/08/02 05:15:18;;;;;;;4.18;2.58;;;;;;;;;;5033698;28;20275;-71
2021/08/02 05:17:43;;;;;;;5.70;2.60;;;;;;;;;;5049635;28;20174;-71
2021/08/02 05:20:08;;;;;;;5.72;3.15;;;;;;;;;;5031701;28;20188;-71
2021/08/02 05:22:34;;;;;;;4.70;2.63;;;;;;;;;;5049869;28;20216;-72
2021/08/02 05:24:59;;;;;;;6.30;2.88;;;;;;;;;;5050799;28;20284;-71
2021/08/02 05:27:24;;;;;;;3.45;2.65;;;;;;;;;;5050399;28;20586;-71
2021/08/02 05:29:50;;;;;;;7.82;2.90;;;;;;;;;;5043599;28;20197;-71
2021/08/02 05:32:15;;;;;;;4.95;3.20;;;;;;;;;;5051292;28;20179;-71
2021/08/02 05:34:41;;;;;;;3.65;2.40;;;;;;;;;;5047579;28;20270;-71
2021/08/02 05:37:07;;;;;;;3.15;2.63;;;;;;;;;;5050169;28;20643;-72
2021/08/02 05:39:32;;;;;;;6.95;2.88;;;;;;;;;;5031308;28;20192;-71
2021/08/02 05:41:57;;;;;;;7.05;2.17;;;;;;;;;;5028978;28;20297;-72
2021/08/02 05:44:22;;;;;;;4.90;2.50;;;;;;;;;;5047533;28;20202;-71
2021/08/02 05:46:47;;;;;;;6.47;2.88;;;;;;;;;;5048578;28;20192;-72
2021/08/02 05:49:12;;;;;;;4.65;3.03;;;;;;;;;;5030626;28;20181;-71
2021/08/02 05:51:38;;;;;;;3.50;2.28;;;;;;;;;;5052207;28;20265;-72
2021/08/02 05:54:03;;;;;;;4.90;2.17;;;;;;;;;;5061242;28;20224;-71
2021/08/02 05:56:28;;;;;;;5.93;2.07;;;;;;;;;;5054213;28;20464;-72
2021/08/02 05:58:53;;;;;;;5.00;2.17;;;;;;;;;;5038328;28;20419;-72
2021/08/02 06:01:18;;;;;;;5.45;2.05;;;;;;;;;;5048769;28;20178;-71
2021/08/02 06:03:44;;;;;;;8.98;2.53;;;;;;;;;;5041442;28;20182;-71
2021/08/02 06:06:09;;;;;;;3.95;1.63;;;;;;;;;;5038372;28;20193;-71
2021/08/02 06:08:38;;;;;;;6.32;2.10;;;;;;;;;;5039104;28;20244;-71
2021/08/02 06:11:03;;;;;;;6.10;2.40;;;;;;;;;;5040363;28;20252;-71
2021/08/02 06:13:29;;;;;;;3.13;1.60;;;;;;;;;;5046178;28;20181;-71
2021/08/02 06:15:54;;;;;;;2.65;2.13;;;;;;;;;;5031113;28;20209;-71
2021/08/02 06:18:19;;;;;;;5.13;2.00;;;;;;;;;;5038853;28;20220;-72
2021/08/02 06:20:44;;;;;;;3.93;1.60;;;;;;;;;;5043937;28;20239;-71
2021/08/02 06:23:09;;;;;;;2.85;1.88;;;;;;;;;;5046979;28;20433;-72
2021/08/02 06:25:35;;;;;;;3.07;1.47;;;;;;;;;;5034988;28;20244;-71
2021/08/02 06:28:00;;;;;;;3.72;1.35;;;;;;;;;;5043110;28;20423;-71
2021/08/02 06:30:25;;;;;;;3.72;2.00;;;;;;;;;;5032621;28;20209;-71
2021/08/02 06:32:50;;;;;;;5.55;1.35;;;;;;;;;;5038543;28;20177;-71
2021/08/02 06:35:16;;;;;;;4.00;1.88;;;;;;;;;;5039929;28;20193;-72
2021/08/02 06:37:41;;;;;;;5.22;2.15;;;;;;;;;;5040731;28;20174;-71
2021/08/02 06:40:10;;;;;;;3.45;1.40;;;;;;;;;;5038778;28;20186;-72
2021/08/02 06:42:35;;;;;;;3.67;1.33;;;;;;;;;;5048328;28;20638;-72
2021/08/02 06:45:00;;;;;;;3.15;1.10;;;;;;;;;;5031192;28;20224;-72
2021/08/02 06:47:26;;;;;;;4.30;1.10;;;;;;;;;;5046134;28;20194;-71
2021/08/02 06:49:51;;;;;;;5.50;1.30;;;;;;;;;;5050121;28;20676;-71
2021/08/02 06:52:16;;;;;;;3.95;1.50;;;;;;;;;;5049791;28;20592;-71
2021/08/02 06:54:41;;;;;;;4.95;1.58;;;;;;;;;;5046693;28;20237;-72
2021/08/02 06:57:06;;;;;;;5.10;1.47;;;;;;;;;;5047901;28;20177;-71
2021/08/02 06:59:31;;;;;;;3.27;1.10;;;;;;;;;;5031886;28;20519;-71
2021/08/02 07:01:57;;;;;;;2.93;1.20;;;;;;;;;;5024873;28;20510;-71
2021/08/02 07:04:22;;;;;;;2.37;1.30;;;;;;;;;;5035469;28;20842;-70
2021/08/02 07:06:47;;;;;;;2.47;1.03;;;;;;;;;;5030366;28;20458;-71
2021/08/02 07:09:12;;;;;;;3.13;1.00;;;;;;;;;;5027262;28;20426;-71
2021/08/02 07:11:37;;;;;;;5.85;1.60;;;;;;;;;;5012363;28;20550;-70
2021/08/02 07:14:02;;;;;;;6.97;1.63;;;;;;;;;;5028502;28;20217;-70
2021/08/02 07:16:28;;;;;;;4.85;1.42;;;;;;;;;;5009897;28;20189;-70
2021/08/02 07:18:53;;;;;;;4.15;2.00;;;;;;;;;;5028968;28;20724;-71
2021/08/02 07:21:19;;;;;;;4.28;1.20;;;;;;;;;;5028005;28;20552;-71
2021/08/02 07:23:45;;;;;;;3.25;1.48;;;;;;;;;;5030252;28;20197;-70
2021/08/02 07:26:10;;;;;;;3.15;1.20;;;;;;;;;;5031901;28;20198;-71
2021/08/02 07:28:35;;;;;;;7.07;1.10;;;;;;;;;;5030339;28;20173;-70
2021/08/02 07:31:00;;;;;;;6.68;1.38;;;;;;;;;;5031233;28;20463;-70
2021/08/02 07:33:25;;;;;;;3.35;1.10;;;;;;;;;;5017661;28;20576;-71
2021/08/02 07:35:51;;;;;;;3.57;1.20;;;;;;;;;;5050603;28;22683;-69
2021/08/02 07:38:16;;;;;;;2.97;1.08;;;;;;;;;;5053195;28;20407;-70
2021/08/02 07:40:41;;;;;;;4.88;1.40;;;;;;;;;;5052177;28;20221;-70
2021/08/02 07:43:06;;;;;;;6.45;1.05;;;;;;;;;;5039595;28;20212;-70
2021/08/02 07:45:32;;;;;;;5.82;1.40;;;;;;;;;;5031612;28;20209;-70
2021/08/02 07:47:57;;;;;;;3.80;1.25;;;;;;;;;;5036475;28;20261;-70
2021/08/02 07:50:22;;;;;;;4.47;1.23;;;;;;;;;;5031474;28;20693;-70
2021/08/02 07:52:47;;;;;;;3.78;1.05;;;;;;;;;;5017219;28;20418;-70
2021/08/02 07:55:13;;;;;;;4.95;1.33;;;;;;;;;;5036726;28;20263;-70
2021/08/02 07:57:38;;;;;;;2.20;1.05;;;;;;;;;;5033608;28;20272;-70
2021/08/02 08:00:05;;;;;;;5.60;1.27;;;;;;;;;;5015666;28;20660;-70
2021/08/02 08:02:30;;;;;;;3.63;1.30;;;;;;;;;;5034227;28;20281;-69
2021/08/02 08:04:55;;;;;;;1.50;0.88;;;;;;;;;;5047188;22;20241;-71
2021/08/02 08:07:20;;;;;;;1.67;0.80;;;;;;;;;;5034528;28;20253;-70
2021/08/02 08:09:46;;;;;;;2.83;1.10;;;;;;;;;;5042893;28;20418;-71
2021/08/02 08:12:11;;;;;;;5.13;1.08;;;;;;;;;;5017883;28;20512;-71
2021/08/02 08:14:36;;;;;;;2.63;1.37;;;;;;;;;;5029868;28;20817;-70
2021/08/02 08:17:01;;;;;;;2.13;1.00;;;;;;;;;;5018375;28;20583;-71
2021/08/02 08:19:27;;;;;;;5.68;1.33;;;;;;;;;;5003954;28;20173;-71
2021/08/02 08:21:52;;;;;;;5.23;1.50;;;;;;;;;;5017428;28;20622;-71
2021/08/02 08:24:17;;;;;;;5.78;1.50;;;;;;;;;;5018436;28;21139;-71
2021/08/02 08:26:42;;;;;;;2.08;1.40;;;;;;;;;;5017622;28;20178;-71
2021/08/02 08:29:07;;;;;;;3.87;1.63;;;;;;;;;;5016240;28;20563;-71
2021/08/02 08:31:33;;;;;;;3.70;1.50;;;;;;;;;;5015754;28;20472;-71
2021/08/02 08:33:58;;;;;;;2.85;1.60;;;;;;;;;;5016981;28;20478;-72
2021/08/02 08:36:24;;;;;;;5.07;1.92;;;;;;;;;;5014733;28;20571;-71
2021/08/02 08:38:49;;;;;;;4.70;1.80;;;;;;;;;;5020345;28;20274;-70
2021/08/02 08:41:18;;;;;;;5.95;1.67;;;;;;;;;;5017206;28;20186;-71
2021/08/02 08:43:43;;;;;;;3.45;2.08;;;;;;;;;;5016399;28;20186;-71
2021/08/02 08:46:09;;;;;;;6.88;1.75;;;;;;;;;;5015436;28;20261;-71
2021/08/02 08:48:34;;;;;;;6.32;1.67;;;;;;;;;;5017890;28;20269;-71
2021/08/02 08:51:01;;;;;;;4.50;1.92;;;;;;;;;;5014318;28;20206;-71
2021/08/02 08:53:27;;;;;;;5.57;1.63;;;;;;;;;;5014073;28;20576;-71
2021/08/02 08:55:52;;;;;;;4.63;1.92;;;;;;;;;;5014004;28;20214;-71
2021/08/02 08:58:17;;;;;;;5.10;1.67;;;;;;;;;;5014789;28;20261;-70
2021/08/02 09:00:42;;;;;;;2.15;1.10;;;;;;;;;;5014073;28;20408;-71
2021/08/02 09:03:09;;;;;;;8.25;1.85;;;;;;;;;;5023560;28;20181;-71
2021/08/02 09:05:34;;;;;;;3.75;0.95;;;;;;;;;;5015687;28;20214;-71
2021/08/02 09:08:01;;;;;;;3.47;1.13;;;;;;;;;;5015529;28;20189;-71
2021/08/02 09:10:27;;;;;;;2.58;1.13;;;;;;;;;;5014751;28;20610;-70
2021/08/02 09:12:56;;;;;;;2.67;1.10;;;;;;;;;;5014885;28;20184;-71
2021/08/02 09:15:42;;;;;;;4.05;1.00;;;;;;;;;;5018439;28;20238;-70
2021/08/02 09:18:09;;;;;;;4.72;1.40;;;;;;;;;;5013889;28;20173;-71
2021/08/02 09:20:35;;;;;;;5.22;1.10;;;;;;;;;;5016187;28;20186;-70
2021/08/02 09:23:05;;;;;;;2.05;1.10;;;;;;;;;;5017385;28;20640;-71
2021/08/02 09:25:30;;;;;;;2.58;1.05;;;;;;;;;;5016848;28;20626;-71
2021/08/02 09:27:56;;;;;;;4.75;1.00;;;;;;;;;;5013944;28;20181;-71
2021/08/02 09:30:25;;;;;;;2.53;1.27;;;;;;;;;;5016704;28;20212;-71
2021/08/02 09:32:55;;;;;;;3.60;1.17;;;;;;;;;;5017799;28;20415;-71
2021/08/02 09:35:34;;;;;;;1.50;1.10;;;;;;;;;;4999827;28;20224;-70
2021/08/02 09:38:09;;;;;;;1.77;0.85;;;;;;;;;;5016826;28;20236;-71
2021/08/02 09:40:38;;;;;;;4.40;0.95;;;;;;;;;;5017460;28;20198;-71
2021/08/02 09:43:03;;;;;;;5.78;1.10;;;;;;;;;;5013658;28;20193;-71
2021/08/02 09:45:38;;;;;;;3.90;1.00;;;;;;;;;;5017238;28;20203;-71
2021/08/02 09:48:03;;;;;;;3.55;1.10;;;;;;;;;;5017009;28;20430;-71
2021/08/02 09:50:29;;;;;;;2.65;1.00;;;;;;;;;;5014971;28;20203;-71
2021/08/02 09:52:55;;;;;;;3.42;0.93;;;;;;;;;;5014875;28;20523;-71
2021/08/02 09:55:21;;;;;;;5.25;0.98;;;;;;;;;;5014282;28;20202;-71
2021/08/02 09:57:47;;;;;;;1.95;0.85;;;;;;;;;;4997677;28;20299;-71
2021/08/02 10:00:13;;;;;;;3.78;1.17;;;;;;;;;;5013289;28;20564;-70
2021/08/02 10:02:38;;;;;;;2.47;1.13;;;;;;;;;;5016709;28;20177;-71
2021/08/02 10:05:04;;;;;;;3.38;0.95;;;;;;;;;;5016256;28;20222;-70
2021/08/02 10:07:29;;;;;;;3.58;0.90;;;;;;;;;;5015833;28;20643;-71
2021/08/02 10:09:54;;;;;;;3.10;0.73;;;;;;;;;;5014673;28;20225;-71
2021/08/02 10:12:20;;;;;;;2.90;0.80;;;;;;;;;;5016058;28;20185;-70
2021/08/02 10:14:45;;;;;;;2.55;1.00;;;;;;;;;;5015512;28;20214;-70
2021/08/02 10:17:10;;;;;;;1.60;0.73;;;;;;;;;;5014642;28;20175;-70
2021/08/02 10:19:37;;;;;;;3.85;1.00;;;;;;;;;;5012622;28;20204;-70
2021/08/02 10:22:02;;;;;;;3.38;1.17;;;;;;;;;;5014110;28;20663;-70
2021/08/02 10:24:28;;;;;;;1.92;1.15;;;;;;;;;;5002574;28;20206;-70
2021/08/02 10:26:56;;;;;;;3.17;1.00;;;;;;;;;;5015613;28;20241;-70
2021/08/02 10:29:21;;;;;;;3.40;0.85;;;;;;;;;;5013131;28;20722;-70
2021/08/02 10:31:47;;;;;;;3.35;0.82;;;;;;;;;;5014088;28;20213;-70
2021/08/02 10:34:17;;;;;;;3.95;1.00;;;;;;;;;;5014866;28;20202;-70
2021/08/02 10:36:43;;;;;;;3.95;0.90;;;;;;;;;;5014754;28;20173;-70
2021/08/02 10:39:19;;;;;;;2.70;0.98;;;;;;;;;;5021115;28;20566;-70
2021/08/02 10:41:44;;;;;;;4.60;1.00;;;;;;;;;;5014257;28;20189;-70
2021/08/02 10:44:13;;;;;;;4.37;0.90;;;;;;;;;;5016165;28;20293;-70
2021/08/02 10:46:39;;;;;;;1.95;0.73;;;;;;;;;;5015394;28;20423;-70
2021/08/02 10:49:09;;;;;;;3.00;1.02;;;;;;;;;;5018072;28;20201;-70
2021/08/02 10:51:44;;;;;;;1.52;0.70;;;;;;;;;;5014652;28;20745;-71
2021/08/02 10:54:09;;;;;;;4.05;1.17;;;;;;;;;;5013835;28;21444;-70
2021/08/02 10:56:34;;;;;;;2.30;0.60;;;;;;;;;;5014468;28;20297;-70
2021/08/02 10:59:00;;;;;;;2.93;0.80;;;;;;;;;;5016456;28;20642;-70
2021/08/02 11:01:26;;;;;;;2.10;0.82;;;;;;;;;;5001867;28;20436;-70
2021/08/02 11:03:52;;;;;;;4.05;1.00;;;;;;;;;;5016987;28;20204;-70
2021/08/02 11:06:17;;;;;;;2.60;0.80;;;;;;;;;;5018254;28;20201;-70
2021/08/02 11:08:42;;;;;;;2.28;0.98;;;;;;;;;;5019971;28;20185;-70
2021/08/02 11:11:08;;;;;;;3.70;0.60;;;;;;;;;;5022985;28;20212;-71
2021/08/02 11:13:33;;;;;;;3.95;0.90;;;;;;;;;;5020849;28;20939;-70
2021/08/02 11:15:59;;;;;;;2.03;0.63;;;;;;;;;;5019935;28;20675;-71
2021/08/02 11:18:25;;;;;;;2.38;1.10;;;;;;;;;;5015782;28;20528;-69
2021/08/02 11:20:50;;;;;;;1.50;0.73;;;;;;;;;;5017773;28;20477;-70
2021/08/02 11:23:15;;;;;;;1.90;0.60;;;;;;;;;;5022489;28;20196;-70
2021/08/02 11:25:41;;;;;;;3.50;1.03;;;;;;;;;;5027950;28;20613;-69
2021/08/02 11:28:06;;;;;;;2.20;0.80;;;;;;;;;;5020165;28;20183;-70
2021/08/02 11:30:31;;;;;;;2.30;1.10;;;;;;;;;;5014814;28;20452;-70
2021/08/02 11:32:56;;;;;;;2.20;0.80;;;;;;;;;;5017365;28;20184;-69
2021/08/02 11:35:31;;;;;;;3.35;0.90;;;;;;;;;;5021347;28;20452;-71
2021/08/02 11:37:56;;;;;;;2.90;1.02;;;;;;;;;;5019198;28;20319;-70
2021/08/02 11:40:22;;;;;;;3.70;1.40;;;;;;;;;;5001242;28;20736;-71
2021/08/02 11:42:50;;;;;;;3.08;1.05;;;;;;;;;;5018617;28;20422;-70
2021/08/02 11:45:17;;;;;;;1.77;0.77;;;;;;;;;;5015390;28;20205;-70
2021/08/02 11:47:43;;;;;;;4.70;0.85;;;;;;;;;;5018235;28;20222;-70
2021/08/02 11:50:08;;;;;;;2.65;0.90;;;;;;;;;;5017854;28;20221;-70
2021/08/02 11:52:33;;;;;;;4.82;1.00;;;;;;;;;;5013015;28;20712;-70
2021/08/02 11:55:06;;;;;;;4.20;0.80;;;;;;;;;;5017506;28;20206;-70
2021/08/02 11:57:31;;;;;;;3.30;0.80;;;;;;;;;;5016709;28;20218;-70
2021/08/02 11:59:58;;;;;;;3.72;1.10;;;;;;;;;;5019597;28;20210;-70
2021/08/02 12:02:33;;;;;;;2.53;0.93;;;;;;;;;;5017997;28;20186;-70
2021/08/02 12:04:58;;;;;;;1.30;0.60;;;;;;;;;;5015232;28;20212;-69
2021/08/02 12:07:24;;;;;;;3.30;1.00;;;;;;;;;;5016652;28;20186;-70
2021/08/02 12:09:49;;;;;;;5.78;1.25;;;;;;;;;;5019435;28;20255;-70
2021/08/02 12:12:20;;;;;;;2.88;0.95;;;;;;;;;;5028863;28;20250;-69
2021/08/02 12:14:45;;;;;;;1.83;0.60;;;;;;;;;;5023608;28;20703;-70
2021/08/02 12:17:11;;;;;;;2.65;0.85;;;;;;;;;;4996597;28;20268;-69
2021/08/02 12:19:43;;;;;;;1.27;0.60;;;;;;;;;;5014293;28;20791;-69
2021/08/02 12:22:08;;;;;;;1.52;0.77;;;;;;;;;;5019719;28;20640;-70
2021/08/02 12:24:33;;;;;;;2.03;0.80;;;;;;;;;;5017126;28;20221;-70
2021/08/02 12:26:58;;;;;;;2.67;0.90;;;;;;;;;;5014572;28;20198;-70
2021/08/02 12:29:25;;;;;;;2.87;1.07;;;;;;;;;;5018330;28;20428;-70
2021/08/02 12:32:08;;;;;;;3.85;0.95;;;;;;;;;;5016790;28;20705;-70
2021/08/02 12:34:33;;;;;;;1.73;0.77;;;;;;;;;;4999607;28;21277;-70
2021/08/02 12:36:59;;;;;;;2.63;0.77;;;;;;;;;;5014542;28;20191;-69
2021/08/02 12:39:27;;;;;;;1.88;0.82;;;;;;;;;;5002769;28;21170;-69
2021/08/02 12:41:52;;;;;;;2.63;0.93;;;;;;;;;;5014597;28;20182;-69
2021/08/02 12:44:17;;;;;;;2.80;0.90;;;;;;;;;;5015786;28;20639;-69
2021/08/02 12:46:42;;;;;;;2.70;0.90;;;;;;;;;;5018679;28;20454;-69
2021/08/02 12:49:07;;;;;;;1.98;1.00;;;;;;;;;;5021662;28;20855;-70
2021/08/02 12:51:33;;;;;;;2.45;0.80;;;;;;;;;;5024047;28;20767;-70
2021/08/02 12:53:58;;;;;;;2.35;0.88;;;;;;;;;;5014681;28;20185;-70
2021/08/02 12:56:23;;;;;;;1.17;0.97;;;;;;;;;;5014127;28;20182;-70
2021/08/02 12:58:49;;;;;;;1.73;0.70;;;;;;;;;;5017090;28;21050;-70
2021/08/02 13:01:14;;;;;;;2.60;0.98;;;;;;;;;;5018759;28;20433;-70
2021/08/02 13:03:42;;;;;;;1.33;0.90;;;;;;;;;;5023658;28;20674;-69
2021/08/02 13:06:08;;;;;;;1.60;0.60;;;;;;;;;;5008478;28;20571;-70
2021/08/02 13:08:33;;;;;;;1.17;0.70;;;;;;;;;;5014281;28;20588;-69
2021/08/02 13:10:58;;;;;;;3.83;1.00;;;;;;;;;;5013874;28;20462;-69
2021/08/02 13:13:23;;;;;;;3.83;0.97;;;;;;;;;;5016609;28;20920;-70
2021/08/02 13:15:48;;;;;;;2.90;0.80;;;;;;;;;;5013710;28;20444;-69
2021/08/02 13:18:14;;;;;;;3.00;0.60;;;;;;;;;;5014259;28;20177;-70
2021/08/02 13:20:39;;;;;;;3.63;1.05;;;;;;;;;;5019861;28;20188;-70
2021/08/02 13:23:11;;;;;;;2.43;0.97;;;;;;;;;;5021750;28;20195;-70
2021/08/02 13:28:20;;;;;;;2.78;0.80;;;;;;;;;;5011755;28;20260;-70
2021/08/02 13:30:45;;;;;;;2.90;1.20;;;;;;;;;;5026365;28;20672;-70
2021/08/02 13:33:11;;;;;;;2.45;0.70;;;;;;;;;;5013702;28;20227;-70
2021/08/02 13:35:36;;;;;;;2.00;0.77;;;;;;;;;;5015601;28;20295;-71
2021/08/02 13:38:01;;;;;;;0.70;0.57;;;;;;;;;;5017871;28;20208;-71
2021/08/02 13:40:26;;;;;;;1.92;0.50;;;;;;;;;;5015868;28;20447;-70
2021/08/02 13:42:51;;;;;;;2.30;0.60;;;;;;;;;;5028632;28;20265;-71
2021/08/02 13:45:17;;;;;;;1.97;0.70;;;;;;;;;;5031161;28;20839;-71
2021/08/02 13:47:43;;;;;;;1.58;0.60;;;;;;;;;;5016128;28;20436;-70
2021/08/02 13:50:08;;;;;;;2.50;0.80;;;;;;;;;;5014571;28;20772;-71
2021/08/02 13:52:34;;;;;;;2.00;0.73;;;;;;;;;;5027099;28;20208;-70
2021/08/02 13:55:00;;;;;;;1.13;0.63;;;;;;;;;;5030257;28;20286;-71
2021/08/02 13:57:25;;;;;;;3.13;0.73;;;;;;;;;;5017142;28;20423;-70
2021/08/02 13:59:50;;;;;;;2.73;0.70;;;;;;;;;;5014685;28;20424;-71
2021/08/02 14:02:15;;;;;;;1.20;0.70;;;;;;;;;;5016317;28;20446;-70
2021/08/02 14:04:40;;;;;;;2.03;0.60;;;;;;;;;;5034696;22;20481;-70
2021/08/02 14:07:05;;;;;;;1.30;0.60;;;;;;;;;;5046629;28;20437;-69
2021/08/02 14:09:34;;;;;;;2.10;0.60;;;;;;;;;;5048057;28;20903;-69
2021/08/02 14:12:00;;;;;;;2.05;0.63;;;;;;;;;;5048794;28;20484;-70
2021/08/02 14:14:28;;;;;;;1.63;0.70;;;;;;;;;;5033049;28;20181;-70
2021/08/02 14:16:55;;;;;;;1.73;0.52;;;;;;;;;;5046835;28;20173;-70
2021/08/02 14:19:23;;;;;;;2.35;0.70;;;;;;;;;;5042388;28;20568;-69
2021/08/02 14:21:48;;;;;;;1.60;0.63;;;;;;;;;;5035262;28;20215;-72
2021/08/02 14:24:13;;;;;;;1.37;0.60;;;;;;;;;;5050631;28;20286;-70
2021/08/02 14:26:39;;;;;;;1.42;0.50;;;;;;;;;;5048387;28;22687;-70
2021/08/02 14:29:05;;;;;;;0.63;0.43;;;;;;;;;;5046064;28;20185;-69
2021/08/02 14:31:31;;;;;;;2.08;0.73;;;;;;;;;;5045265;28;20666;-69
2021/08/02 14:33:56;;;;;;;3.65;0.85;;;;;;;;;;5049725;28;20198;-69
2021/08/02 14:36:22;;;;;;;2.20;0.68;;;;;;;;;;5049059;28;20203;-69
2021/08/02 14:38:48;;;;;;;5.95;0.95;;;;;;;;;;5061554;28;20619;-69
2021/08/02 14:41:14;;;;;;;2.13;0.90;;;;;;;;;;5034666;28;20199;-69